createdAt,value
2018-02-13T00:00:09.398Z,37.05
2018-02-13T00:02:37.828Z,36.03
2018-02-13T00:05:06.184Z,50.88
2018-02-13T00:07:34.582Z,36.47
2018-02-13T00:10:02.965Z,35.17
2018-02-13T00:12:31.293Z,52.38
2018-02-13T00:14:59.717Z,37.70
2018-02-13T00:17:28.045Z,46.05
2018-02-13T00:19:56.470Z,36.92
2018-02-13T00:22:24.845Z,39.95
2018-02-13T00:24:53.198Z,44.03
2018-02-13T00:27:21.602Z,47.70
2018-02-13T00:29:49.978Z,35.33
2018-02-13T00:32:18.309Z,32.90
2018-02-13T00:34:46.733Z,42.55
2018-02-13T00:37:15.069Z,39.42
2018-02-13T00:39:43.416Z,55.72
2018-02-13T00:42:11.765Z,42.83
2018-02-13T00:44:40.117Z,47.47
2018-02-13T00:47:08.448Z,52.42
2018-02-13T00:49:36.929Z,40.92
2018-02-13T00:52:05.234Z,46.47
2018-02-13T00:54:33.657Z,37.72
2018-02-13T00:57:01.982Z,38.08
2018-02-13T00:59:30.405Z,35.97
2018-02-13T01:01:58.729Z,52.83
2018-02-13T01:04:27.157Z,43.03
2018-02-13T01:06:55.481Z,43.83
2018-02-13T01:09:23.825Z,39.17
2018-02-13T01:11:52.152Z,41.42
2018-02-13T01:14:20.501Z,34.50
2018-02-13T01:16:48.833Z,38.72
2018-02-13T01:19:17.221Z,39.17
2018-02-13T01:21:45.551Z,35.20
2018-02-13T01:24:13.901Z,55.17
2018-02-13T01:26:42.246Z,40.45
2018-02-13T01:29:10.601Z,33.03
2018-02-13T01:31:39.005Z,48.97
2018-02-13T01:34:07.353Z,53.55
2018-02-13T01:36:35.685Z,33.42
2018-02-13T01:39:04.037Z,42.90
2018-02-13T01:41:32.369Z,42.00
2018-02-13T01:44:00.725Z,47.83
2018-02-13T01:46:29.062Z,38.35
2018-02-13T01:48:57.414Z,47.28
2018-02-13T01:51:25.741Z,46.83
2018-02-13T01:53:54.190Z,47.60
2018-02-13T01:56:22.518Z,46.30
2018-02-13T01:58:50.838Z,40.45
2018-02-13T02:01:19.182Z,42.33
2018-02-13T02:03:47.505Z,43.42
2018-02-13T02:06:15.848Z,47.15
2018-02-13T02:08:44.206Z,48.30
2018-02-13T02:11:12.522Z,40.30
2018-02-13T02:13:40.858Z,42.40
2018-02-13T02:16:09.202Z,41.50
2018-02-13T02:18:37.520Z,46.35
2018-02-13T02:21:05.892Z,46.30
2018-02-13T02:23:34.229Z,52.53
2018-02-13T02:26:02.577Z,42.60
2018-02-13T02:28:30.961Z,48.92
2018-02-13T02:30:59.314Z,45.85
2018-02-13T02:33:27.645Z,41.90
2018-02-13T02:35:56.102Z,47.25
2018-02-13T02:38:24.429Z,40.60
2018-02-13T02:40:52.781Z,53.72
2018-02-13T02:43:21.125Z,39.60
2018-02-13T02:45:49.474Z,46.58
2018-02-13T02:48:17.803Z,46.55
2018-02-13T02:50:46.258Z,41.00
2018-02-13T02:53:14.633Z,42.85
2018-02-13T02:55:42.981Z,43.63
2018-02-13T02:58:11.302Z,45.92
2018-02-13T03:00:39.657Z,43.65
2018-02-13T03:03:08.041Z,35.63
2018-02-13T03:05:36.390Z,42.58
2018-02-13T03:08:04.722Z,45.90
2018-02-13T03:10:33.170Z,37.13
2018-02-13T03:13:01.545Z,42.20
2018-02-13T03:15:29.902Z,42.67
2018-02-13T03:17:58.301Z,40.60
2018-02-13T03:20:26.657Z,33.10
2018-02-13T03:22:54.990Z,34.95
2018-02-13T03:25:23.341Z,36.33
2018-02-13T03:27:51.668Z,40.63
2018-02-13T03:30:20.089Z,42.17
2018-02-13T03:32:48.417Z,47.08
2018-02-13T03:35:16.837Z,45.40
2018-02-13T03:37:45.217Z,52.33
2018-02-13T03:40:13.597Z,41.55
2018-02-13T03:42:41.922Z,57.60
2018-02-13T03:45:10.273Z,43.28
2018-02-13T03:47:38.678Z,46.58
2018-02-13T03:50:07.105Z,48.15
2018-02-13T03:52:35.442Z,38.92
2018-02-13T03:55:03.861Z,42.72
2018-02-13T03:57:32.189Z,43.83
2018-02-13T04:00:00.622Z,42.88
2018-02-13T04:02:28.989Z,50.80
2018-02-13T04:04:57.320Z,35.25
2018-02-13T04:07:25.673Z,44.42
2018-02-13T04:09:54.021Z,39.15
2018-02-13T04:12:22.373Z,36.47
2018-02-13T04:14:50.774Z,39.45
2018-02-13T04:17:19.149Z,38.78
2018-02-13T04:19:47.478Z,42.58
2018-02-13T04:22:15.833Z,34.88
2018-02-13T04:24:44.160Z,37.50
2018-02-13T04:27:12.554Z,28.40
2018-02-13T04:29:40.913Z,36.67
2018-02-13T04:32:09.309Z,32.10
2018-02-13T04:34:37.690Z,31.70
2018-02-13T04:37:06.042Z,33.40
2018-02-13T04:39:34.441Z,29.52
2018-02-13T04:42:02.822Z,30.80
2018-02-13T04:44:31.197Z,43.17
2018-02-13T04:46:59.603Z,39.83
2018-02-13T04:49:27.957Z,30.23
2018-02-13T04:51:56.328Z,38.40
2018-02-13T04:54:24.664Z,29.30
2018-02-13T04:56:53.013Z,40.55
2018-02-13T04:59:21.361Z,33.00
2018-02-13T05:01:49.738Z,31.67
2018-02-13T05:04:18.117Z,46.92
2018-02-13T05:06:46.465Z,36.55
2018-02-13T05:09:14.872Z,30.37
2018-02-13T05:11:43.277Z,28.48
2018-02-13T05:14:11.610Z,42.35
2018-02-13T05:16:39.965Z,28.65
2018-02-13T05:19:08.381Z,32.50
2018-02-13T05:21:36.762Z,38.63
2018-02-13T05:24:05.141Z,40.35
2018-02-13T05:26:33.509Z,32.25
2018-02-13T05:29:01.905Z,34.60
2018-02-13T05:31:30.201Z,34.53
2018-02-13T05:33:58.550Z,26.67
2018-02-13T05:36:26.921Z,33.90
2018-02-13T05:38:55.252Z,45.47
2018-02-13T05:41:23.609Z,27.40
2018-02-13T05:43:51.937Z,29.12
2018-02-13T05:46:20.328Z,30.67
2018-02-13T05:48:48.710Z,23.73
2018-02-13T05:51:17.754Z,34.38
2018-02-13T05:53:46.082Z,31.87
2018-02-13T05:56:14.434Z,46.95
2018-02-13T05:58:42.829Z,25.75
2018-02-13T06:01:11.215Z,30.15
2018-02-13T06:03:39.564Z,30.67
2018-02-13T06:06:07.969Z,30.90
2018-02-13T06:08:36.324Z,23.45
2018-02-13T06:11:04.725Z,24.48
2018-02-13T06:13:33.101Z,31.30
2018-02-13T06:16:01.486Z,32.60
2018-02-13T06:18:29.842Z,28.73
2018-02-13T06:20:58.274Z,41.17
2018-02-13T06:23:26.613Z,34.30
2018-02-13T06:25:54.989Z,22.08
2018-02-13T06:28:23.446Z,23.65
2018-02-13T06:30:51.850Z,25.20
2018-02-13T06:33:20.201Z,35.47
2018-02-13T06:35:48.529Z,25.20
2018-02-13T06:38:16.976Z,25.55
2018-02-13T06:40:45.310Z,24.90
2018-02-13T06:43:13.662Z,26.20
2018-02-13T06:45:41.984Z,20.60
2018-02-13T06:48:10.334Z,23.70
2018-02-13T06:50:38.674Z,23.40
2018-02-13T06:53:07.013Z,17.83
2018-02-13T06:55:35.342Z,26.00
2018-02-13T06:58:03.685Z,31.00
2018-02-13T07:00:32.014Z,22.70
2018-02-13T07:03:00.358Z,31.67
2018-02-13T07:05:28.704Z,18.10
2018-02-13T07:07:57.020Z,15.60
2018-02-13T07:10:25.340Z,26.58
2018-02-13T07:12:53.689Z,23.10
2018-02-13T07:15:22.010Z,19.80
2018-02-13T07:17:50.349Z,20.50
2018-02-13T07:20:18.665Z,31.23
2018-02-13T07:22:47.010Z,25.43
2018-02-13T07:25:19.061Z,20.20
2018-02-13T07:27:47.618Z,16.47
2018-02-13T07:30:21.456Z,38.83
2018-02-13T07:33:00.885Z,35.67
2018-02-13T07:35:36.236Z,24.53
2018-02-13T07:38:04.565Z,20.47
2018-02-13T07:40:32.913Z,18.73
2018-02-13T07:43:01.261Z,21.47
2018-02-13T07:45:29.581Z,18.40
2018-02-13T07:47:57.924Z,17.17
2018-02-13T07:50:26.244Z,17.08
2018-02-13T07:52:54.585Z,15.00
2018-02-13T07:55:22.914Z,28.12
2018-02-13T07:57:51.258Z,18.47
2018-02-13T08:00:19.577Z,25.63
2018-02-13T08:02:47.918Z,21.07
2018-02-13T08:05:16.245Z,26.73
2018-02-13T08:07:44.657Z,16.00
2018-02-13T08:10:12.937Z,19.57
2018-02-13T08:12:41.302Z,22.55
2018-02-13T08:15:09.636Z,30.70
2018-02-13T08:17:38.464Z,21.80
2018-02-13T08:20:06.773Z,23.93
2018-02-13T08:22:35.127Z,16.33
2018-02-13T08:25:03.449Z,14.30
2018-02-13T08:27:31.769Z,14.47
2018-02-13T08:30:00.119Z,21.27
2018-02-13T08:32:28.434Z,24.53
2018-02-13T08:34:56.821Z,36.17
2018-02-13T08:37:25.229Z,17.98
2018-02-13T08:39:53.573Z,14.50
2018-02-13T08:42:21.893Z,22.90
2018-02-13T08:44:50.237Z,21.27
2018-02-13T08:47:18.566Z,19.37
2018-02-13T08:49:46.905Z,17.67
2018-02-13T08:52:15.225Z,20.83
2018-02-13T08:54:43.588Z,18.13
2018-02-13T08:57:11.893Z,14.70
2018-02-13T08:59:40.237Z,23.97
2018-02-13T09:02:08.558Z,25.90
2018-02-13T09:04:36.904Z,20.40
2018-02-13T09:07:05.226Z,15.73
2018-02-13T09:09:33.565Z,22.07
2018-02-13T09:12:01.889Z,17.60
2018-02-13T09:14:30.249Z,16.67
2018-02-13T09:16:58.574Z,15.67
2018-02-13T09:19:26.998Z,13.10
2018-02-13T09:21:55.325Z,14.37
2018-02-13T09:24:23.755Z,17.47
2018-02-13T09:26:52.083Z,17.13
2018-02-13T09:29:20.421Z,13.80
2018-02-13T09:31:49.126Z,18.77
2018-02-13T09:34:17.477Z,13.63
2018-02-13T09:36:45.797Z,24.83
2018-02-13T09:39:14.145Z,12.57
2018-02-13T09:41:42.470Z,14.20
2018-02-13T09:44:10.813Z,19.93
2018-02-13T09:46:39.146Z,21.00
2018-02-13T09:49:07.489Z,18.30
2018-02-13T09:51:35.902Z,21.80
2018-02-13T09:54:04.241Z,13.23
2018-02-13T09:56:32.566Z,18.53
2018-02-13T09:59:00.936Z,16.42
2018-02-13T10:01:29.309Z,24.27
2018-02-13T10:03:57.685Z,18.03
2018-02-13T10:06:26.010Z,12.02
2018-02-13T10:08:54.446Z,18.40
2018-02-13T10:11:23.533Z,18.60
2018-02-13T10:13:51.877Z,15.13
2018-02-13T10:16:20.201Z,14.03
2018-02-13T10:18:48.665Z,24.65
2018-02-13T10:21:17.041Z,17.70
2018-02-13T10:23:45.381Z,22.07
2018-02-13T10:26:13.709Z,17.08
2018-02-13T10:28:42.053Z,18.83
2018-02-13T10:31:10.373Z,18.33
2018-02-13T10:33:38.721Z,21.43
2018-02-13T10:36:08.005Z,16.67
2018-02-13T10:38:36.349Z,15.05
2018-02-13T10:41:05.481Z,12.37
2018-02-13T10:43:33.811Z,17.73
2018-02-13T10:46:03.146Z,14.68
2018-02-13T10:48:31.465Z,11.30
2018-02-13T10:50:59.823Z,17.30
2018-02-13T10:53:28.130Z,13.83
2018-02-13T10:55:56.528Z,15.83
2018-02-13T10:58:24.825Z,15.27
2018-02-13T11:00:58.717Z,19.67
2018-02-13T11:03:27.038Z,16.07
2018-02-13T11:05:55.382Z,20.80
2018-02-13T11:08:23.701Z,12.67
2018-02-13T11:10:52.047Z,11.90
2018-02-13T11:13:20.386Z,17.63
2018-02-13T11:15:49.725Z,14.57
2018-02-13T11:18:18.041Z,14.07
2018-02-13T11:20:46.385Z,11.60
2018-02-13T11:23:14.710Z,14.43
2018-02-13T11:25:43.090Z,21.77
2018-02-13T11:28:11.376Z,16.95
2018-02-13T11:30:39.721Z,12.90
2018-02-13T11:33:08.041Z,19.17
2018-02-13T11:35:36.381Z,8.63
2018-02-13T11:38:04.701Z,18.90
2018-02-13T11:40:33.046Z,15.40
2018-02-13T11:43:01.370Z,15.60
2018-02-13T11:45:29.709Z,8.40
2018-02-13T11:47:58.030Z,15.73
2018-02-13T11:50:26.374Z,11.17
2018-02-13T11:52:54.693Z,15.57
2018-02-13T11:55:23.037Z,15.70
2018-02-13T11:57:51.361Z,18.00
2018-02-13T12:00:19.706Z,13.53
2018-02-13T12:02:48.027Z,9.20
2018-02-13T12:05:16.375Z,20.50
2018-02-13T12:07:44.741Z,13.80
2018-02-13T12:10:13.114Z,10.38
2018-02-13T12:12:41.433Z,12.93
2018-02-13T12:15:09.783Z,11.80
2018-02-13T12:17:38.146Z,9.77
2018-02-13T12:20:06.485Z,10.90
2018-02-13T12:22:34.985Z,9.87
2018-02-13T12:25:03.312Z,11.20
2018-02-13T12:27:31.706Z,16.37
2018-02-13T12:30:00.028Z,9.73
2018-02-13T12:32:28.347Z,11.00
2018-02-13T12:34:56.697Z,11.07
2018-02-13T12:37:25.018Z,21.33
2018-02-13T12:39:53.336Z,13.60
2018-02-13T12:42:21.677Z,9.75
2018-02-13T12:44:49.993Z,9.00
2018-02-13T12:47:18.341Z,15.98
2018-02-13T12:49:46.657Z,16.00
2018-02-13T12:52:14.999Z,10.03
2018-02-13T12:54:43.321Z,15.83
2018-02-13T12:57:12.665Z,10.53
2018-02-13T12:59:40.994Z,15.67
2018-02-13T13:02:09.346Z,12.83
2018-02-13T13:04:37.670Z,13.60
2018-02-13T13:07:06.027Z,13.20
2018-02-13T13:09:34.385Z,16.77
2018-02-13T13:12:02.738Z,13.80
2018-02-13T13:14:31.053Z,20.93
2018-02-13T13:16:59.399Z,10.70
2018-02-13T13:19:27.726Z,17.77
2018-02-13T13:21:56.066Z,14.60
2018-02-13T13:24:24.385Z,19.67
2018-02-13T13:26:52.740Z,16.45
2018-02-13T13:29:21.082Z,12.67
2018-02-13T13:31:49.439Z,10.83
2018-02-13T13:34:17.761Z,12.57
2018-02-13T13:36:46.105Z,15.57
2018-02-13T13:39:14.435Z,17.85
2018-02-13T13:41:42.770Z,9.88
2018-02-13T13:44:11.106Z,13.65
2018-02-13T13:46:39.458Z,14.77
2018-02-13T13:49:08.557Z,18.90
2018-02-13T13:51:37.304Z,14.27
2018-02-13T13:54:05.627Z,9.40
2018-02-13T13:56:33.979Z,16.93
2018-02-13T13:59:02.303Z,16.80
2018-02-13T14:01:30.653Z,13.35
2018-02-13T14:03:58.978Z,10.87
2018-02-13T14:06:27.310Z,12.27
2018-02-13T14:08:55.669Z,9.93
2018-02-13T14:11:23.989Z,9.47
2018-02-13T14:13:52.334Z,13.17
2018-02-13T14:16:20.657Z,8.93
2018-02-13T14:18:49.022Z,15.03
2018-02-13T14:21:17.426Z,13.05
2018-02-13T14:23:45.794Z,23.60
2018-02-13T14:26:14.129Z,10.67
2018-02-13T14:28:42.658Z,10.20
2018-02-13T14:31:11.036Z,8.63
2018-02-13T14:33:39.531Z,10.83
2018-02-13T14:36:07.895Z,9.10
2018-02-13T14:38:36.285Z,9.15
2018-02-13T14:41:04.607Z,8.83
2018-02-13T14:43:32.950Z,15.27
2018-02-13T14:46:01.343Z,16.65
2018-02-13T14:48:29.685Z,18.13
2018-02-13T14:50:58.098Z,16.53
2018-02-13T14:53:26.482Z,9.98
2018-02-13T14:55:54.966Z,7.40
2018-02-13T14:58:23.321Z,11.63
2018-02-13T15:00:51.688Z,11.20
2018-02-13T15:03:20.027Z,9.80
2018-02-13T15:05:49.311Z,13.43
2018-02-13T15:08:17.709Z,13.13
2018-02-13T15:10:45.972Z,7.37
2018-02-13T15:13:14.305Z,13.87
2018-02-13T15:15:42.633Z,15.40
2018-02-13T15:18:12.954Z,15.57
2018-02-13T15:20:41.280Z,13.82
2018-02-13T15:23:09.617Z,7.97
2018-02-13T15:25:38.031Z,11.97
2018-02-13T15:28:06.381Z,6.50
2018-02-13T15:30:35.342Z,5.72
2018-02-13T15:33:03.679Z,14.77
2018-02-13T15:35:32.001Z,11.10
2018-02-13T15:38:00.354Z,7.53
2018-02-13T15:40:28.671Z,7.23
2018-02-13T15:42:57.086Z,8.88
2018-02-13T15:45:25.416Z,13.50
2018-02-13T15:47:53.763Z,12.40
2018-02-13T15:50:23.037Z,12.80
2018-02-13T15:52:51.405Z,17.20
2018-02-13T15:55:19.749Z,10.43
2018-02-13T15:57:48.113Z,13.73
2018-02-13T16:00:16.422Z,11.27
2018-02-13T16:02:45.147Z,12.40
2018-02-13T16:05:15.957Z,12.63
2018-02-13T16:07:44.313Z,13.13
2018-02-13T16:10:12.648Z,15.70
2018-02-13T16:12:41.049Z,8.57
2018-02-13T16:15:09.602Z,9.87
2018-02-13T16:17:37.929Z,14.00
2018-02-13T16:20:06.281Z,16.27
2018-02-13T16:22:34.605Z,13.17
2018-02-13T16:25:02.972Z,13.97
2018-02-13T16:27:31.308Z,14.17
2018-02-13T16:29:59.654Z,14.17
2018-02-13T16:32:27.981Z,25.55
2018-02-13T16:34:56.350Z,35.07
2018-02-13T16:37:24.673Z,21.03
2018-02-13T16:39:53.116Z,57.60
2018-02-13T16:42:21.446Z,50.20
2018-02-13T16:44:50.014Z,105.77
2018-02-13T16:47:19.413Z,116.80
2018-02-13T16:49:48.098Z,144.97
2018-02-13T16:52:16.977Z,150.43
2018-02-13T16:54:45.350Z,245.93
2018-02-13T16:57:13.734Z,652.67
2018-02-13T16:59:42.162Z,337.48
2018-02-13T17:02:10.508Z,140.37
2018-02-13T17:04:39.033Z,35.88
2018-02-13T17:07:07.534Z,42.30
2018-02-13T17:09:36.761Z,29.48
2018-02-13T17:12:05.090Z,20.00
2018-02-13T17:14:33.453Z,21.77
2018-02-13T17:17:01.802Z,17.27
2018-02-13T17:19:30.249Z,23.67
2018-02-13T17:21:58.710Z,11.88
2018-02-13T17:24:27.081Z,9.60
2018-02-13T17:26:55.436Z,15.10
2018-02-13T17:29:23.757Z,13.93
2018-02-13T17:31:52.277Z,15.65
2018-02-13T17:34:20.627Z,21.73
2018-02-13T17:36:49.917Z,21.57
2018-02-13T17:39:18.262Z,16.98
2018-02-13T17:41:46.589Z,15.97
2018-02-13T17:44:14.937Z,19.23
2018-02-13T17:46:43.322Z,20.10
2018-02-13T17:49:11.719Z,17.25
2018-02-13T17:51:41.990Z,11.93
2018-02-13T17:54:11.757Z,26.25
2018-02-13T17:56:40.086Z,54.93
2018-02-13T17:59:08.476Z,88.13
2018-02-13T18:01:36.996Z,75.30
2018-02-13T18:04:05.341Z,48.33
2018-02-13T18:06:33.678Z,18.93
2018-02-13T18:09:02.033Z,24.00
2018-02-13T18:11:30.389Z,17.53
2018-02-13T18:13:58.729Z,15.10
2018-02-13T18:16:27.059Z,25.50
2018-02-13T18:18:55.421Z,27.33
2018-02-13T18:21:23.752Z,41.33
2018-02-13T18:23:52.081Z,47.50
2018-02-13T18:26:20.436Z,40.83
2018-02-13T18:28:48.766Z,33.47
2018-02-13T18:31:17.197Z,24.67
2018-02-13T18:33:46.298Z,26.90
2018-02-13T18:36:14.650Z,18.90
2018-02-13T18:38:42.978Z,38.23
2018-02-13T18:41:11.425Z,36.30
2018-02-13T18:43:39.800Z,29.60
2018-02-13T18:46:08.149Z,17.93
2018-02-13T18:48:36.562Z,19.87
2018-02-13T18:51:04.907Z,22.47
2018-02-13T18:53:33.229Z,25.27
2018-02-13T18:56:01.587Z,24.10
2018-02-13T18:58:29.966Z,33.00
2018-02-13T19:00:58.318Z,39.93
2018-02-13T19:03:26.645Z,39.65
2018-02-13T19:05:55.892Z,38.50
2018-02-13T19:08:24.222Z,27.50
2018-02-13T19:10:52.673Z,25.20
2018-02-13T19:13:20.995Z,24.47
2018-02-13T19:15:50.324Z,17.35
2018-02-13T19:18:18.658Z,29.33
2018-02-13T19:20:47.017Z,13.83
2018-02-13T19:23:15.362Z,11.57
2018-02-13T19:25:43.733Z,23.37
2018-02-13T19:28:12.289Z,16.60
2018-02-13T19:30:40.620Z,16.12
2018-02-13T19:33:08.998Z,16.60
2018-02-13T19:35:37.365Z,23.87
2018-02-13T19:38:05.702Z,14.65
2018-02-13T19:40:34.070Z,22.00
2018-02-13T19:43:02.394Z,44.30
2018-02-13T19:45:30.748Z,26.70
2018-02-13T19:47:59.078Z,31.00
2018-02-13T19:50:27.427Z,32.70
2018-02-13T19:52:55.759Z,34.83
2018-02-13T19:55:24.190Z,27.20
2018-02-13T19:57:52.567Z,20.97
2018-02-13T20:00:20.918Z,26.27
2018-02-13T20:02:49.266Z,21.20
2018-02-13T20:05:17.701Z,15.15
2018-02-13T20:07:46.181Z,14.70
2018-02-13T20:10:14.549Z,17.58
2018-02-13T20:12:42.879Z,12.50
2018-02-13T20:15:11.243Z,12.37
2018-02-13T20:17:39.609Z,15.03
2018-02-13T20:20:07.949Z,16.33
2018-02-13T20:22:36.294Z,25.08
2018-02-13T20:25:04.642Z,20.53
2018-02-13T20:27:32.988Z,16.63
2018-02-13T20:30:01.317Z,13.50
2018-02-13T20:32:30.032Z,13.13
2018-02-13T20:34:58.358Z,18.47
2018-02-13T20:37:26.810Z,21.87
2018-02-13T20:39:55.126Z,15.20
2018-02-13T20:42:23.554Z,15.23
2018-02-13T20:44:51.886Z,15.95
2018-02-13T20:47:20.226Z,13.90
2018-02-13T20:49:48.546Z,18.67
2018-02-13T20:52:16.889Z,22.50
2018-02-13T20:54:45.213Z,25.03
2018-02-13T20:57:13.614Z,23.43
2018-02-13T20:59:41.957Z,19.17
2018-02-13T21:02:10.322Z,17.68
2018-02-13T21:04:38.691Z,19.73
2018-02-13T21:07:07.008Z,14.05
2018-02-13T21:09:35.403Z,15.32
2018-02-13T21:12:03.749Z,11.53
2018-02-13T21:14:32.074Z,12.23
2018-02-13T21:17:00.421Z,17.47
2018-02-13T21:19:28.761Z,15.32
2018-02-13T21:21:57.190Z,16.67
2018-02-13T21:24:25.558Z,12.20
2018-02-13T21:26:53.897Z,9.80
2018-02-13T21:29:22.221Z,16.25
2018-02-13T21:31:50.571Z,14.83
2018-02-13T21:34:18.894Z,10.77
2018-02-13T21:36:47.342Z,9.18
2018-02-13T21:39:15.661Z,14.20
2018-02-13T21:41:44.097Z,11.55
2018-02-13T21:44:12.428Z,11.55
2018-02-13T21:46:41.754Z,21.80
2018-02-13T21:49:10.154Z,26.60
2018-02-13T21:51:38.498Z,20.83
2018-02-13T21:54:06.909Z,20.60
2018-02-13T21:56:36.214Z,21.93
2018-02-13T21:59:04.582Z,11.98
2018-02-13T22:01:32.931Z,11.40
2018-02-13T22:04:01.620Z,10.02
2018-02-13T22:06:30.021Z,19.03
2018-02-13T22:08:58.347Z,19.30
2018-02-13T22:11:26.685Z,16.70
2018-02-13T22:13:55.053Z,14.73
2018-02-13T22:16:23.400Z,12.53
2018-02-13T22:18:51.805Z,12.20
2018-02-13T22:21:20.150Z,13.10
2018-02-13T22:23:48.553Z,15.13
2018-02-13T22:26:16.897Z,23.58
2018-02-13T22:28:45.217Z,29.08
2018-02-13T22:31:13.541Z,47.35
2018-02-13T22:33:41.965Z,32.50
2018-02-13T22:36:10.399Z,37.25
2018-02-13T22:38:38.726Z,29.60
2018-02-13T22:41:07.041Z,22.42
2018-02-13T22:43:35.390Z,26.48
2018-02-13T22:46:03.756Z,31.62
2018-02-13T22:48:32.129Z,35.38
2018-02-13T22:51:00.505Z,20.60
2018-02-13T22:53:28.841Z,24.05
2018-02-13T22:55:57.262Z,18.42
2018-02-13T22:58:25.609Z,14.43
2018-02-13T23:00:53.934Z,17.95
2018-02-13T23:03:22.341Z,9.73
2018-02-13T23:05:50.668Z,11.60
2018-02-13T23:08:19.009Z,12.23
2018-02-13T23:10:47.317Z,12.75
2018-02-13T23:13:15.658Z,8.52
2018-02-13T23:15:44.070Z,14.52
2018-02-13T23:18:12.453Z,21.73
2018-02-13T23:20:40.778Z,17.17
2018-02-13T23:23:09.115Z,15.50
2018-02-13T23:25:37.477Z,11.65
2018-02-13T23:28:05.822Z,19.00
2018-02-13T23:30:34.142Z,13.68
2018-02-13T23:33:02.510Z,12.27
2018-02-13T23:35:30.886Z,14.45
2018-02-13T23:37:59.232Z,10.43
2018-02-13T23:40:27.557Z,12.98
2018-02-13T23:42:55.896Z,10.23
2018-02-13T23:45:24.213Z,12.93
2018-02-13T23:47:52.565Z,12.70
2018-02-13T23:50:20.885Z,13.05
2018-02-13T23:52:49.313Z,12.45
2018-02-13T23:55:17.633Z,13.52
2018-02-13T23:57:45.973Z,9.70
